sensor_id;sensor_type;location;lat;lon;timestamp;P1;durP1;ratioP1;P2;durP2;ratioP2
6693;SDS011;3384;42.628;23.380;2023-03-13T00:01:48;2.77;;;2.67;;
6693;SDS011;3384;42.628;23.380;2023-03-13T00:04:15;6.00;;;5.23;;
6693;SDS011;3384;42.628;23.380;2023-03-13T00:06:41;4.73;;;4.43;;
6693;SDS011;3384;42.628;23.380;2023-03-13T00:09:10;3.70;;;3.50;;
6693;SDS011;3384;42.628;23.380;2023-03-13T00:11:37;2.63;;;2.53;;
6693;SDS011;3384;42.628;23.380;2023-03-13T00:14:03;7.53;;;5.97;;
6693;SDS011;3384;42.628;23.380;2023-03-13T00:16:31;7.00;;;4.60;;
6693;SDS011;3384;42.628;23.380;2023-03-13T00:18:58;3.47;;;3.27;;
6693;SDS011;3384;42.628;23.380;2023-03-13T00:21:25;3.73;;;2.80;;
6693;SDS011;3384;42.628;23.380;2023-03-13T00:23:52;2.87;;;2.70;;
6693;SDS011;3384;42.628;23.380;2023-03-13T00:29:25;2.77;;;2.67;;
6693;SDS011;3384;42.628;23.380;2023-03-13T00:31:51;2.87;;;2.73;;
6693;SDS011;3384;42.628;23.380;2023-03-13T00:34:18;3.33;;;2.97;;
6693;SDS011;3384;42.628;23.380;2023-03-13T00:36:44;2.60;;;2.40;;
6693;SDS011;3384;42.628;23.380;2023-03-13T00:39:11;3.00;;;2.90;;
6693;SDS011;3384;42.628;23.380;2023-03-13T00:41:37;2.63;;;2.53;;
6693;SDS011;3384;42.628;23.380;2023-03-13T00:44:04;2.93;;;2.70;;
6693;SDS011;3384;42.628;23.380;2023-03-13T00:46:32;3.80;;;3.60;;
6693;SDS011;3384;42.628;23.380;2023-03-13T00:48:58;3.23;;;3.07;;
6693;SDS011;3384;42.628;23.380;2023-03-13T00:51:25;3.10;;;3.00;;
6693;SDS011;3384;42.628;23.380;2023-03-13T00:53:52;12.30;;;3.53;;
6693;SDS011;3384;42.628;23.380;2023-03-13T00:56:19;5.67;;;2.80;;
6693;SDS011;3384;42.628;23.380;2023-03-13T00:58:46;3.00;;;2.90;;
6693;SDS011;3384;42.628;23.380;2023-03-13T01:01:13;3.10;;;2.90;;
6693;SDS011;3384;42.628;23.380;2023-03-13T01:03:42;8.57;;;2.93;;
6693;SDS011;3384;42.628;23.380;2023-03-13T01:06:10;2.80;;;2.70;;
6693;SDS011;3384;42.628;23.380;2023-03-13T01:08:36;2.93;;;2.83;;
6693;SDS011;3384;42.628;23.380;2023-03-13T01:11:04;3.43;;;3.20;;
6693;SDS011;3384;42.628;23.380;2023-03-13T01:13:31;3.10;;;3.00;;
6693;SDS011;3384;42.628;23.380;2023-03-13T01:16:00;3.03;;;2.10;;
6693;SDS011;3384;42.628;23.380;2023-03-13T01:18:27;2.93;;;2.53;;
6693;SDS011;3384;42.628;23.380;2023-03-13T01:20:54;3.17;;;3.07;;
6693;SDS011;3384;42.628;23.380;2023-03-13T01:23:21;2.70;;;2.57;;
6693;SDS011;3384;42.628;23.380;2023-03-13T01:25:48;3.30;;;3.13;;
6693;SDS011;3384;42.628;23.380;2023-03-13T01:28:14;3.23;;;3.10;;
6693;SDS011;3384;42.628;23.380;2023-03-13T01:30:41;4.80;;;4.07;;
6693;SDS011;3384;42.628;23.380;2023-03-13T01:33:07;6.70;;;3.93;;
6693;SDS011;3384;42.628;23.380;2023-03-13T01:35:34;3.40;;;2.70;;
6693;SDS011;3384;42.628;23.380;2023-03-13T01:38:02;3.87;;;3.60;;
6693;SDS011;3384;42.628;23.380;2023-03-13T01:40:28;3.63;;;3.40;;
6693;SDS011;3384;42.628;23.380;2023-03-13T01:42:55;4.47;;;3.80;;
6693;SDS011;3384;42.628;23.380;2023-03-13T01:48:07;3.97;;;3.67;;
6693;SDS011;3384;42.628;23.380;2023-03-13T01:50:33;4.33;;;3.30;;
6693;SDS011;3384;42.628;23.380;2023-03-13T01:53:01;3.80;;;3.50;;
6693;SDS011;3384;42.628;23.380;2023-03-13T01:55:28;4.20;;;4.00;;
6693;SDS011;3384;42.628;23.380;2023-03-13T01:57:54;4.60;;;4.30;;
6693;SDS011;3384;42.628;23.380;2023-03-13T02:00:21;4.37;;;4.00;;
6693;SDS011;3384;42.628;23.380;2023-03-13T02:02:49;4.40;;;4.00;;
6693;SDS011;3384;42.628;23.380;2023-03-13T02:05:17;19.00;;;11.80;;
6693;SDS011;3384;42.628;23.380;2023-03-13T02:07:44;5.33;;;4.93;;
6693;SDS011;3384;42.628;23.380;2023-03-13T02:10:14;10.50;;;5.87;;
6693;SDS011;3384;42.628;23.380;2023-03-13T02:12:42;4.30;;;3.90;;
6693;SDS011;3384;42.628;23.380;2023-03-13T02:15:10;6.93;;;4.60;;
6693;SDS011;3384;42.628;23.380;2023-03-13T02:17:40;3.97;;;3.73;;
6693;SDS011;3384;42.628;23.380;2023-03-13T02:20:07;4.73;;;4.33;;
6693;SDS011;3384;42.628;23.380;2023-03-13T02:22:36;3.93;;;3.70;;
6693;SDS011;3384;42.628;23.380;2023-03-13T02:25:06;4.07;;;3.73;;
6693;SDS011;3384;42.628;23.380;2023-03-13T02:27:35;4.60;;;3.43;;
6693;SDS011;3384;42.628;23.380;2023-03-13T02:30:02;3.10;;;2.90;;
6693;SDS011;3384;42.628;23.380;2023-03-13T02:32:29;2.57;;;2.40;;
6693;SDS011;3384;42.628;23.380;2023-03-13T02:34:57;3.30;;;3.10;;
6693;SDS011;3384;42.628;23.380;2023-03-13T02:37:27;4.07;;;2.80;;
6693;SDS011;3384;42.628;23.380;2023-03-13T02:39:54;3.27;;;3.10;;
6693;SDS011;3384;42.628;23.380;2023-03-13T02:42:22;2.90;;;2.63;;
6693;SDS011;3384;42.628;23.380;2023-03-13T02:44:50;4.10;;;2.87;;
6693;SDS011;3384;42.628;23.380;2023-03-13T02:47:17;3.10;;;2.80;;
6693;SDS011;3384;42.628;23.380;2023-03-13T02:49:44;2.70;;;2.60;;
6693;SDS011;3384;42.628;23.380;2023-03-13T02:52:11;3.30;;;3.00;;
6693;SDS011;3384;42.628;23.380;2023-03-13T02:54:39;3.70;;;3.50;;
6693;SDS011;3384;42.628;23.380;2023-03-13T02:57:06;3.57;;;3.30;;
6693;SDS011;3384;42.628;23.380;2023-03-13T02:59:33;4.03;;;3.83;;
6693;SDS011;3384;42.628;23.380;2023-03-13T03:02:01;3.13;;;2.93;;
6693;SDS011;3384;42.628;23.380;2023-03-13T03:04:28;3.50;;;2.90;;
6693;SDS011;3384;42.628;23.380;2023-03-13T03:06:55;3.03;;;2.57;;
6693;SDS011;3384;42.628;23.380;2023-03-13T03:09:21;2.67;;;2.40;;
6693;SDS011;3384;42.628;23.380;2023-03-13T03:11:48;3.00;;;2.80;;
6693;SDS011;3384;42.628;23.380;2023-03-13T03:14:15;2.40;;;2.30;;
6693;SDS011;3384;42.628;23.380;2023-03-13T03:16:41;3.10;;;2.90;;
6693;SDS011;3384;42.628;23.380;2023-03-13T03:19:09;3.27;;;2.83;;
6693;SDS011;3384;42.628;23.380;2023-03-13T03:21:36;3.30;;;2.90;;
6693;SDS011;3384;42.628;23.380;2023-03-13T03:24:02;3.23;;;2.93;;
6693;SDS011;3384;42.628;23.380;2023-03-13T03:26:29;3.63;;;2.50;;
6693;SDS011;3384;42.628;23.380;2023-03-13T03:28:56;2.80;;;2.37;;
6693;SDS011;3384;42.628;23.380;2023-03-13T03:31:22;3.60;;;2.67;;
6693;SDS011;3384;42.628;23.380;2023-03-13T03:33:51;2.60;;;2.50;;
6693;SDS011;3384;42.628;23.380;2023-03-13T03:36:20;3.00;;;2.80;;
6693;SDS011;3384;42.628;23.380;2023-03-13T03:38:47;3.33;;;2.73;;
6693;SDS011;3384;42.628;23.380;2023-03-13T03:41:14;3.27;;;3.17;;
6693;SDS011;3384;42.628;23.380;2023-03-13T03:43:40;4.47;;;3.20;;
6693;SDS011;3384;42.628;23.380;2023-03-13T03:46:07;2.47;;;2.27;;
6693;SDS011;3384;42.628;23.380;2023-03-13T03:48:34;3.03;;;2.83;;
6693;SDS011;3384;42.628;23.380;2023-03-13T03:51:00;2.43;;;2.33;;
6693;SDS011;3384;42.628;23.380;2023-03-13T03:53:28;2.90;;;2.70;;
6693;SDS011;3384;42.628;23.380;2023-03-13T03:55:56;2.40;;;2.30;;
6693;SDS011;3384;42.628;23.380;2023-03-13T03:58:22;2.80;;;2.60;;
6693;SDS011;3384;42.628;23.380;2023-03-13T04:00:49;2.43;;;2.33;;
6693;SDS011;3384;42.628;23.380;2023-03-13T04:03:15;2.93;;;2.50;;
6693;SDS011;3384;42.628;23.380;2023-03-13T04:05:42;3.40;;;3.17;;
6693;SDS011;3384;42.628;23.380;2023-03-13T04:08:09;3.13;;;2.93;;
6693;SDS011;3384;42.628;23.380;2023-03-13T04:10:36;2.30;;;2.20;;
6693;SDS011;3384;42.628;23.380;2023-03-13T04:13:03;2.80;;;2.60;;
6693;SDS011;3384;42.628;23.380;2023-03-13T04:15:30;2.93;;;2.83;;
6693;SDS011;3384;42.628;23.380;2023-03-13T04:17:56;3.07;;;2.87;;
6693;SDS011;3384;42.628;23.380;2023-03-13T04:20:22;3.03;;;2.93;;
6693;SDS011;3384;42.628;23.380;2023-03-13T04:22:49;2.03;;;2.03;;
6693;SDS011;3384;42.628;23.380;2023-03-13T04:25:15;2.40;;;2.30;;
6693;SDS011;3384;42.628;23.380;2023-03-13T04:27:43;3.37;;;3.27;;
6693;SDS011;3384;42.628;23.380;2023-03-13T04:30:10;5.83;;;3.57;;
6693;SDS011;3384;42.628;23.380;2023-03-13T04:32:37;4.80;;;4.53;;
6693;SDS011;3384;42.628;23.380;2023-03-13T04:35:03;5.07;;;4.60;;
6693;SDS011;3384;42.628;23.380;2023-03-13T04:37:30;9.77;;;4.70;;
6693;SDS011;3384;42.628;23.380;2023-03-13T04:39:56;5.43;;;4.33;;
6693;SDS011;3384;42.628;23.380;2023-03-13T04:42:23;11.07;;;4.77;;
6693;SDS011;3384;42.628;23.380;2023-03-13T04:44:51;9.90;;;5.97;;
6693;SDS011;3384;42.628;23.380;2023-03-13T04:47:17;6.73;;;6.23;;
6693;SDS011;3384;42.628;23.380;2023-03-13T04:49:44;7.00;;;6.37;;
6693;SDS011;3384;42.628;23.380;2023-03-13T04:52:10;7.33;;;5.30;;
6693;SDS011;3384;42.628;23.380;2023-03-13T04:54:37;10.37;;;6.23;;
6693;SDS011;3384;42.628;23.380;2023-03-13T04:57:03;5.93;;;5.40;;
6693;SDS011;3384;42.628;23.380;2023-03-13T04:59:30;6.47;;;5.87;;
6693;SDS011;3384;42.628;23.380;2023-03-13T05:01:58;5.87;;;5.43;;
6693;SDS011;3384;42.628;23.380;2023-03-13T05:04:24;6.83;;;6.33;;
6693;SDS011;3384;42.628;23.380;2023-03-13T05:06:50;7.20;;;6.57;;
6693;SDS011;3384;42.628;23.380;2023-03-13T05:09:17;6.07;;;5.60;;
6693;SDS011;3384;42.628;23.380;2023-03-13T05:11:43;6.03;;;5.33;;
6693;SDS011;3384;42.628;23.380;2023-03-13T05:14:10;5.43;;;5.03;;
6693;SDS011;3384;42.628;23.380;2023-03-13T05:16:36;5.73;;;5.33;;
6693;SDS011;3384;42.628;23.380;2023-03-13T05:19:05;5.77;;;5.10;;
6693;SDS011;3384;42.628;23.380;2023-03-13T05:21:32;5.13;;;4.77;;
6693;SDS011;3384;42.628;23.380;2023-03-13T05:23:58;5.27;;;4.37;;
6693;SDS011;3384;42.628;23.380;2023-03-13T05:26:25;5.57;;;5.17;;
6693;SDS011;3384;42.628;23.380;2023-03-13T05:28:52;4.87;;;4.57;;
6693;SDS011;3384;42.628;23.380;2023-03-13T05:31:18;4.37;;;4.07;;
6693;SDS011;3384;42.628;23.380;2023-03-13T05:33:45;4.80;;;4.40;;
6693;SDS011;3384;42.628;23.380;2023-03-13T05:36:13;5.80;;;5.30;;
6693;SDS011;3384;42.628;23.380;2023-03-13T05:38:39;4.40;;;4.07;;
6693;SDS011;3384;42.628;23.380;2023-03-13T05:41:06;5.03;;;4.67;;
6693;SDS011;3384;42.628;23.380;2023-03-13T05:43:32;16.07;;;4.10;;
6693;SDS011;3384;42.628;23.380;2023-03-13T05:45:59;4.20;;;3.97;;
6693;SDS011;3384;42.628;23.380;2023-03-13T05:48:25;4.60;;;4.20;;
6693;SDS011;3384;42.628;23.380;2023-03-13T05:50:52;4.77;;;4.37;;
6693;SDS011;3384;42.628;23.380;2023-03-13T05:53:19;4.70;;;4.47;;
6693;SDS011;3384;42.628;23.380;2023-03-13T05:55:46;4.33;;;4.23;;
6693;SDS011;3384;42.628;23.380;2023-03-13T05:58:12;5.60;;;5.10;;
6693;SDS011;3384;42.628;23.380;2023-03-13T06:00:39;4.30;;;4.03;;
6693;SDS011;3384;42.628;23.380;2023-03-13T06:03:07;5.20;;;4.80;;
6693;SDS011;3384;42.628;23.380;2023-03-13T06:05:34;5.00;;;4.73;;
6693;SDS011;3384;42.628;23.380;2023-03-13T06:08:01;6.63;;;4.63;;
6693;SDS011;3384;42.628;23.380;2023-03-13T06:10:29;6.47;;;4.80;;
6693;SDS011;3384;42.628;23.380;2023-03-13T06:12:56;9.23;;;5.77;;
6693;SDS011;3384;42.628;23.380;2023-03-13T06:15:22;4.90;;;4.67;;
6693;SDS011;3384;42.628;23.380;2023-03-13T06:17:49;4.93;;;4.73;;
6693;SDS011;3384;42.628;23.380;2023-03-13T06:20:15;5.17;;;4.83;;
6693;SDS011;3384;42.628;23.380;2023-03-13T06:22:42;5.10;;;4.80;;
6693;SDS011;3384;42.628;23.380;2023-03-13T06:25:09;9.40;;;5.83;;
6693;SDS011;3384;42.628;23.380;2023-03-13T06:27:36;8.30;;;5.37;;
6693;SDS011;3384;42.628;23.380;2023-03-13T06:30:03;5.90;;;5.60;;
6693;SDS011;3384;42.628;23.380;2023-03-13T06:32:30;14.73;;;5.70;;
6693;SDS011;3384;42.628;23.380;2023-03-13T06:34:56;5.63;;;5.33;;
6693;SDS011;3384;42.628;23.380;2023-03-13T06:37:23;5.03;;;4.63;;
6693;SDS011;3384;42.628;23.380;2023-03-13T06:39:49;5.13;;;4.83;;
6693;SDS011;3384;42.628;23.380;2023-03-13T06:42:16;4.77;;;4.67;;
6693;SDS011;3384;42.628;23.380;2023-03-13T06:44:43;4.87;;;4.47;;
6693;SDS011;3384;42.628;23.380;2023-03-13T06:47:10;4.03;;;3.83;;
6693;SDS011;3384;42.628;23.380;2023-03-13T06:49:36;5.40;;;5.10;;
6693;SDS011;3384;42.628;23.380;2023-03-13T06:52:03;4.07;;;3.87;;
6693;SDS011;3384;42.628;23.380;2023-03-13T06:54:29;4.17;;;4.00;;
6693;SDS011;3384;42.628;23.380;2023-03-13T06:56:56;4.43;;;4.03;;
6693;SDS011;3384;42.628;23.380;2023-03-13T06:59:22;6.53;;;3.70;;
6693;SDS011;3384;42.628;23.380;2023-03-13T07:01:50;4.63;;;4.33;;
6693;SDS011;3384;42.628;23.380;2023-03-13T07:04:17;4.87;;;4.60;;
6693;SDS011;3384;42.628;23.380;2023-03-13T07:06:44;4.30;;;4.10;;
6693;SDS011;3384;42.628;23.380;2023-03-13T07:09:10;5.27;;;4.90;;
6693;SDS011;3384;42.628;23.380;2023-03-13T07:11:37;4.73;;;4.63;;
6693;SDS011;3384;42.628;23.380;2023-03-13T07:14:03;5.40;;;5.00;;
6693;SDS011;3384;42.628;23.380;2023-03-13T07:16:30;5.10;;;4.90;;
6693;SDS011;3384;42.628;23.380;2023-03-13T07:18:57;5.60;;;5.20;;
6693;SDS011;3384;42.628;23.380;2023-03-13T07:21:24;5.80;;;5.50;;
6693;SDS011;3384;42.628;23.380;2023-03-13T07:23:51;4.90;;;4.50;;
6693;SDS011;3384;42.628;23.380;2023-03-13T07:26:17;5.03;;;4.83;;
6693;SDS011;3384;42.628;23.380;2023-03-13T07:28:44;6.13;;;5.53;;
6693;SDS011;3384;42.628;23.380;2023-03-13T07:31:12;5.80;;;5.40;;
6693;SDS011;3384;42.628;23.380;2023-03-13T07:33:39;10.63;;;5.80;;
6693;SDS011;3384;42.628;23.380;2023-03-13T07:36:07;8.40;;;6.27;;
6693;SDS011;3384;42.628;23.380;2023-03-13T07:38:34;7.13;;;6.57;;
6693;SDS011;3384;42.628;23.380;2023-03-13T07:41:00;10.40;;;6.93;;
6693;SDS011;3384;42.628;23.380;2023-03-13T07:43:27;7.00;;;6.50;;
6693;SDS011;3384;42.628;23.380;2023-03-13T07:45:55;7.00;;;6.60;;
6693;SDS011;3384;42.628;23.380;2023-03-13T07:48:23;7.07;;;6.57;;
6693;SDS011;3384;42.628;23.380;2023-03-13T07:50:49;8.87;;;7.10;;
6693;SDS011;3384;42.628;23.380;2023-03-13T07:53:17;9.10;;;8.23;;
6693;SDS011;3384;42.628;23.380;2023-03-13T07:55:52;8.90;;;8.00;;
6693;SDS011;3384;42.628;23.380;2023-03-13T07:58:19;13.30;;;7.60;;
6693;SDS011;3384;42.628;23.380;2023-03-13T08:00:46;14.03;;;7.50;;
6693;SDS011;3384;42.628;23.380;2023-03-13T08:03:12;8.60;;;7.63;;
6693;SDS011;3384;42.628;23.380;2023-03-13T08:05:39;12.73;;;9.27;;
6693;SDS011;3384;42.628;23.380;2023-03-13T08:08:05;11.30;;;9.30;;
6693;SDS011;3384;42.628;23.380;2023-03-13T08:10:33;14.57;;;9.30;;
6693;SDS011;3384;42.628;23.380;2023-03-13T08:12:59;11.10;;;9.03;;
6693;SDS011;3384;42.628;23.380;2023-03-13T08:15:26;8.63;;;7.90;;
6693;SDS011;3384;42.628;23.380;2023-03-13T08:17:53;9.50;;;8.57;;
6693;SDS011;3384;42.628;23.380;2023-03-13T08:20:19;14.67;;;8.90;;
6693;SDS011;3384;42.628;23.380;2023-03-13T08:22:46;13.30;;;9.23;;
6693;SDS011;3384;42.628;23.380;2023-03-13T08:25:12;17.57;;;9.30;;
6693;SDS011;3384;42.628;23.380;2023-03-13T08:27:40;11.97;;;8.90;;
6693;SDS011;3384;42.628;23.380;2023-03-13T08:30:07;9.53;;;8.53;;
6693;SDS011;3384;42.628;23.380;2023-03-13T08:32:34;23.23;;;8.70;;
6693;SDS011;3384;42.628;23.380;2023-03-13T08:35:01;11.77;;;9.03;;
6693;SDS011;3384;42.628;23.380;2023-03-13T08:37:27;13.73;;;10.40;;
6693;SDS011;3384;42.628;23.380;2023-03-13T08:39:54;15.83;;;9.30;;
6693;SDS011;3384;42.628;23.380;2023-03-13T08:42:20;12.63;;;10.10;;
6693;SDS011;3384;42.628;23.380;2023-03-13T08:44:48;15.40;;;11.40;;
6693;SDS011;3384;42.628;23.380;2023-03-13T08:47:15;15.10;;;9.83;;
6693;SDS011;3384;42.628;23.380;2023-03-13T08:49:42;14.00;;;10.60;;
6693;SDS011;3384;42.628;23.380;2023-03-13T08:52:09;14.17;;;8.93;;
6693;SDS011;3384;42.628;23.380;2023-03-13T08:54:35;9.53;;;8.60;;
6693;SDS011;3384;42.628;23.380;2023-03-13T08:57:02;14.20;;;10.40;;
6693;SDS011;3384;42.628;23.380;2023-03-13T08:59:28;15.37;;;9.93;;
6693;SDS011;3384;42.628;23.380;2023-03-13T09:01:58;13.43;;;10.33;;
6693;SDS011;3384;42.628;23.380;2023-03-13T09:04:24;12.53;;;9.97;;
6693;SDS011;3384;42.628;23.380;2023-03-13T09:06:51;18.90;;;9.27;;
6693;SDS011;3384;42.628;23.380;2023-03-13T09:09:17;10.07;;;9.00;;
6693;SDS011;3384;42.628;23.380;2023-03-13T09:11:44;14.23;;;10.53;;
6693;SDS011;3384;42.628;23.380;2023-03-13T09:14:11;10.53;;;9.07;;
6693;SDS011;3384;42.628;23.380;2023-03-13T09:16:38;10.27;;;9.47;;
6693;SDS011;3384;42.628;23.380;2023-03-13T09:19:06;10.83;;;9.70;;
6693;SDS011;3384;42.628;23.380;2023-03-13T09:21:33;11.83;;;8.47;;
6693;SDS011;3384;42.628;23.380;2023-03-13T09:24:00;8.93;;;8.23;;
6693;SDS011;3384;42.628;23.380;2023-03-13T09:26:27;11.03;;;9.50;;
6693;SDS011;3384;42.628;23.380;2023-03-13T09:28:54;11.10;;;9.17;;
6693;SDS011;3384;42.628;23.380;2023-03-13T09:31:21;10.40;;;9.30;;
6693;SDS011;3384;42.628;23.380;2023-03-13T09:33:48;9.47;;;8.63;;
6693;SDS011;3384;42.628;23.380;2023-03-13T09:36:16;9.17;;;8.47;;
6693;SDS011;3384;42.628;23.380;2023-03-13T09:38:43;10.17;;;9.13;;
6693;SDS011;3384;42.628;23.380;2023-03-13T09:41:19;10.30;;;7.80;;
6693;SDS011;3384;42.628;23.380;2023-03-13T09:43:49;18.07;;;8.33;;
6693;SDS011;3384;42.628;23.380;2023-03-13T09:46:17;8.10;;;7.60;;
6693;SDS011;3384;42.628;23.380;2023-03-13T09:48:46;8.23;;;7.43;;
6693;SDS011;3384;42.628;23.380;2023-03-13T09:51:16;13.40;;;9.07;;
6693;SDS011;3384;42.628;23.380;2023-03-13T09:53:44;9.27;;;8.47;;
6693;SDS011;3384;42.628;23.380;2023-03-13T09:56:39;10.87;;;9.03;;
6693;SDS011;3384;42.628;23.380;2023-03-13T09:59:12;9.33;;;8.43;;
6693;SDS011;3384;42.628;23.380;2023-03-13T10:01:45;11.67;;;8.83;;
6693;SDS011;3384;42.628;23.380;2023-03-13T10:04:20;10.03;;;9.03;;
6693;SDS011;3384;42.628;23.380;2023-03-13T10:06:53;12.50;;;8.10;;
6693;SDS011;3384;42.628;23.380;2023-03-13T10:09:22;9.23;;;8.30;;
6693;SDS011;3384;42.628;23.380;2023-03-13T10:11:56;13.63;;;9.67;;
6693;SDS011;3384;42.628;23.380;2023-03-13T10:14:30;9.90;;;8.87;;
6693;SDS011;3384;42.628;23.380;2023-03-13T10:17:06;32.10;;;9.90;;
6693;SDS011;3384;42.628;23.380;2023-03-13T10:19:41;8.40;;;7.70;;
6693;SDS011;3384;42.628;23.380;2023-03-13T10:22:11;10.13;;;7.57;;
6693;SDS011;3384;42.628;23.380;2023-03-13T10:24:41;9.03;;;8.33;;
6693;SDS011;3384;42.628;23.380;2023-03-13T10:27:16;10.23;;;9.30;;
6693;SDS011;3384;42.628;23.380;2023-03-13T10:29:43;17.83;;;7.70;;
6693;SDS011;3384;42.628;23.380;2023-03-13T10:32:10;10.50;;;8.77;;
6693;SDS011;3384;42.628;23.380;2023-03-13T10:34:48;9.87;;;8.90;;
6693;SDS011;3384;42.628;23.380;2023-03-13T10:37:19;22.03;;;8.23;;
6693;SDS011;3384;42.628;23.380;2023-03-13T10:39:47;9.40;;;8.50;;
6693;SDS011;3384;42.628;23.380;2023-03-13T10:42:19;22.80;;;9.33;;
6693;SDS011;3384;42.628;23.380;2023-03-13T10:44:49;10.23;;;9.17;;
6693;SDS011;3384;42.628;23.380;2023-03-13T10:47:21;8.33;;;7.63;;
6693;SDS011;3384;42.628;23.380;2023-03-13T10:49:48;9.67;;;8.80;;
6693;SDS011;3384;42.628;23.380;2023-03-13T10:52:28;7.80;;;7.30;;
6693;SDS011;3384;42.628;23.380;2023-03-13T10:54:58;8.23;;;7.63;;
6693;SDS011;3384;42.628;23.380;2023-03-13T10:57:28;21.20;;;8.10;;
6693;SDS011;3384;42.628;23.380;2023-03-13T10:59:56;9.10;;;8.30;;
6693;SDS011;3384;42.628;23.380;2023-03-13T11:02:26;9.53;;;8.63;;
6693;SDS011;3384;42.628;23.380;2023-03-13T11:04:56;9.40;;;8.60;;
6693;SDS011;3384;42.628;23.380;2023-03-13T11:07:27;8.80;;;7.90;;
6693;SDS011;3384;42.628;23.380;2023-03-13T11:09:59;11.80;;;7.97;;
6693;SDS011;3384;42.628;23.380;2023-03-13T11:12:33;7.70;;;6.97;;
6693;SDS011;3384;42.628;23.380;2023-03-13T11:15:01;7.73;;;7.10;;
6693;SDS011;3384;42.628;23.380;2023-03-13T11:17:37;7.30;;;6.63;;
6693;SDS011;3384;42.628;23.380;2023-03-13T11:20:18;7.00;;;6.30;;
6693;SDS011;3384;42.628;23.380;2023-03-13T11:22:54;8.10;;;7.47;;
6693;SDS011;3384;42.628;23.380;2023-03-13T11:25:28;7.77;;;7.13;;
6693;SDS011;3384;42.628;23.380;2023-03-13T11:28:08;9.47;;;6.57;;
6693;SDS011;3384;42.628;23.380;2023-03-13T11:30:48;5.97;;;5.67;;
6693;SDS011;3384;42.628;23.380;2023-03-13T11:33:27;8.33;;;7.47;;
6693;SDS011;3384;42.628;23.380;2023-03-13T11:36:00;7.80;;;7.23;;
6693;SDS011;3384;42.628;23.380;2023-03-13T11:38:32;6.60;;;6.20;;
6693;SDS011;3384;42.628;23.380;2023-03-13T11:41:04;7.83;;;6.40;;
6693;SDS011;3384;42.628;23.380;2023-03-13T11:43:44;7.30;;;6.83;;
6693;SDS011;3384;42.628;23.380;2023-03-13T11:49:16;8.53;;;6.73;;
6693;SDS011;3384;42.628;23.380;2023-03-13T11:51:55;13.90;;;7.03;;
6693;SDS011;3384;42.628;23.380;2023-03-13T11:54:41;8.13;;;7.63;;
6693;SDS011;3384;42.628;23.380;2023-03-13T11:57:20;7.00;;;6.50;;
6693;SDS011;3384;42.628;23.380;2023-03-13T12:00:00;9.07;;;8.27;;
6693;SDS011;3384;42.628;23.380;2023-03-13T12:02:40;12.50;;;8.97;;
6693;SDS011;3384;42.628;23.380;2023-03-13T12:05:16;13.53;;;6.50;;
6693;SDS011;3384;42.628;23.380;2023-03-13T12:07:46;7.40;;;6.70;;
6693;SDS011;3384;42.628;23.380;2023-03-13T12:10:18;8.33;;;7.60;;
6693;SDS011;3384;42.628;23.380;2023-03-13T12:12:50;7.10;;;6.70;;
6693;SDS011;3384;42.628;23.380;2023-03-13T12:15:25;9.10;;;7.90;;
6693;SDS011;3384;42.628;23.380;2023-03-13T12:17:57;7.23;;;6.73;;
6693;SDS011;3384;42.628;23.380;2023-03-13T12:20:27;14.17;;;7.23;;
6693;SDS011;3384;42.628;23.380;2023-03-13T12:23:02;6.90;;;6.30;;
6693;SDS011;3384;42.628;23.380;2023-03-13T12:25:43;8.73;;;7.97;;
6693;SDS011;3384;42.628;23.380;2023-03-13T12:28:17;7.70;;;7.10;;
6693;SDS011;3384;42.628;23.380;2023-03-13T12:30:53;7.80;;;7.10;;
6693;SDS011;3384;42.628;23.380;2023-03-13T12:33:27;8.50;;;6.27;;
6693;SDS011;3384;42.628;23.380;2023-03-13T12:36:01;8.47;;;6.37;;
6693;SDS011;3384;42.628;23.380;2023-03-13T12:38:33;7.80;;;7.30;;
6693;SDS011;3384;42.628;23.380;2023-03-13T12:41:07;11.53;;;7.20;;
6693;SDS011;3384;42.628;23.380;2023-03-13T12:43:43;6.83;;;6.40;;
6693;SDS011;3384;42.628;23.380;2023-03-13T12:46:20;6.67;;;6.33;;
6693;SDS011;3384;42.628;23.380;2023-03-13T12:51:59;6.23;;;5.73;;
6693;SDS011;3384;42.628;23.380;2023-03-13T12:54:50;8.60;;;7.70;;
6693;SDS011;3384;42.628;23.380;2023-03-13T12:57:41;6.73;;;6.23;;
6693;SDS011;3384;42.628;23.380;2023-03-13T13:00:28;6.27;;;5.83;;
6693;SDS011;3384;42.628;23.380;2023-03-13T13:03:05;7.00;;;6.40;;
6693;SDS011;3384;42.628;23.380;2023-03-13T13:05:46;9.30;;;7.10;;
6693;SDS011;3384;42.628;23.380;2023-03-13T13:08:24;10.60;;;7.00;;
6693;SDS011;3384;42.628;23.380;2023-03-13T13:10:52;6.80;;;6.30;;
6693;SDS011;3384;42.628;23.380;2023-03-13T13:13:27;9.07;;;7.43;;
6693;SDS011;3384;42.628;23.380;2023-03-13T13:15:59;7.77;;;7.27;;
6693;SDS011;3384;42.628;23.380;2023-03-13T13:18:29;7.93;;;7.13;;
6693;SDS011;3384;42.628;23.380;2023-03-13T13:23:47;6.47;;;6.07;;
6693;SDS011;3384;42.628;23.380;2023-03-13T13:32:30;8.27;;;7.60;;
6693;SDS011;3384;42.628;23.380;2023-03-13T13:35:09;7.77;;;6.10;;
6693;SDS011;3384;42.628;23.380;2023-03-13T13:37:45;7.67;;;7.10;;
6693;SDS011;3384;42.628;23.380;2023-03-13T13:40:20;8.47;;;7.00;;
6693;SDS011;3384;42.628;23.380;2023-03-13T13:42:52;9.90;;;7.93;;
6693;SDS011;3384;42.628;23.380;2023-03-13T13:45:21;9.60;;;7.60;;
6693;SDS011;3384;42.628;23.380;2023-03-13T13:47:51;6.77;;;6.43;;
6693;SDS011;3384;42.628;23.380;2023-03-13T13:53:48;16.63;;;7.93;;
6693;SDS011;3384;42.628;23.380;2023-03-13T14:02:13;15.03;;;7.63;;
6693;SDS011;3384;42.628;23.380;2023-03-13T14:04:51;7.63;;;7.10;;
6693;SDS011;3384;42.628;23.380;2023-03-13T14:07:27;7.63;;;6.83;;
6693;SDS011;3384;42.628;23.380;2023-03-13T14:10:06;11.93;;;8.80;;
6693;SDS011;3384;42.628;23.380;2023-03-13T14:12:45;7.80;;;7.10;;
6693;SDS011;3384;42.628;23.380;2023-03-13T14:15:14;11.73;;;7.00;;
6693;SDS011;3384;42.628;23.380;2023-03-13T14:17:44;8.00;;;7.40;;
6693;SDS011;3384;42.628;23.380;2023-03-13T14:20:19;8.00;;;7.30;;
6693;SDS011;3384;42.628;23.380;2023-03-13T14:22:52;16.73;;;7.00;;
6693;SDS011;3384;42.628;23.380;2023-03-13T14:25:20;7.10;;;6.20;;
6693;SDS011;3384;42.628;23.380;2023-03-13T14:27:48;11.27;;;6.40;;
6693;SDS011;3384;42.628;23.380;2023-03-13T14:30:16;7.27;;;6.57;;
6693;SDS011;3384;42.628;23.380;2023-03-13T14:32:44;7.23;;;6.70;;
6693;SDS011;3384;42.628;23.380;2023-03-13T14:35:13;9.13;;;7.60;;
6693;SDS011;3384;42.628;23.380;2023-03-13T14:37:41;12.03;;;7.23;;
6693;SDS011;3384;42.628;23.380;2023-03-13T14:40:17;8.67;;;6.67;;
6693;SDS011;3384;42.628;23.380;2023-03-13T14:42:46;8.63;;;7.10;;
6693;SDS011;3384;42.628;23.380;2023-03-13T14:45:19;8.90;;;6.87;;
6693;SDS011;3384;42.628;23.380;2023-03-13T14:47:49;8.17;;;7.57;;
6693;SDS011;3384;42.628;23.380;2023-03-13T14:50:17;10.73;;;7.73;;
6693;SDS011;3384;42.628;23.380;2023-03-13T14:52:48;13.07;;;7.80;;
6693;SDS011;3384;42.628;23.380;2023-03-13T14:58:05;7.37;;;6.67;;
6693;SDS011;3384;42.628;23.380;2023-03-13T15:00:52;8.20;;;7.40;;
6693;SDS011;3384;42.628;23.380;2023-03-13T15:03:21;7.47;;;6.70;;
6693;SDS011;3384;42.628;23.380;2023-03-13T15:06:03;6.03;;;5.73;;
6693;SDS011;3384;42.628;23.380;2023-03-13T15:08:32;7.20;;;6.40;;
6693;SDS011;3384;42.628;23.380;2023-03-13T15:11:01;10.83;;;8.00;;
6693;SDS011;3384;42.628;23.380;2023-03-13T15:13:32;12.90;;;8.53;;
6693;SDS011;3384;42.628;23.380;2023-03-13T15:16:00;8.67;;;7.70;;
6693;SDS011;3384;42.628;23.380;2023-03-13T15:18:28;7.47;;;6.87;;
6693;SDS011;3384;42.628;23.380;2023-03-13T15:20:57;11.17;;;7.07;;
6693;SDS011;3384;42.628;23.380;2023-03-13T15:23:24;6.40;;;5.80;;
6693;SDS011;3384;42.628;23.380;2023-03-13T15:25:52;7.40;;;6.80;;
6693;SDS011;3384;42.628;23.380;2023-03-13T15:28:21;6.60;;;6.00;;
6693;SDS011;3384;42.628;23.380;2023-03-13T15:30:49;15.73;;;8.23;;
6693;SDS011;3384;42.628;23.380;2023-03-13T15:33:17;6.60;;;6.20;;
6693;SDS011;3384;42.628;23.380;2023-03-13T15:35:47;5.93;;;5.43;;
6693;SDS011;3384;42.628;23.380;2023-03-13T15:38:15;6.83;;;5.60;;
6693;SDS011;3384;42.628;23.380;2023-03-13T15:40:43;7.97;;;7.13;;
6693;SDS011;3384;42.628;23.380;2023-03-13T15:43:10;7.90;;;7.20;;